sensor_id;sensor_type;location;lat;lon;timestamp;noise_LAeq;noise_LA_min;noise_LA_max;noise_LA01;noise_LA95
66459;Laerm;56836;52.570;4.692;2023-05-24T00:00:07;42.52;41.54;43.36;;
66459;Laerm;56836;52.570;4.692;2023-05-24T00:00:21;42.55;41.45;43.45;;
66459;Laerm;56836;52.570;4.692;2023-05-24T00:00:32;42.49;41.45;43.38;;
66459;Laerm;56836;52.570;4.692;2023-05-24T00:00:42;42.42;41.34;43.10;;
66459;Laerm;56836;52.570;4.692;2023-05-24T00:00:52;42.48;41.64;43.36;;
66459;Laerm;56836;52.570;4.692;2023-05-24T00:01:02;42.41;41.49;43.20;;
66459;Laerm;56836;52.570;4.692;2023-05-24T00:01:13;42.46;41.69;44.08;;
66459;Laerm;56836;52.570;4.692;2023-05-24T00:01:23;42.42;41.53;43.47;;
66459;Laerm;56836;52.570;4.692;2023-05-24T00:01:36;42.48;41.50;44.08;;
66459;Laerm;56836;52.570;4.692;2023-05-24T00:01:46;42.47;41.42;44.89;;
66459;Laerm;56836;52.570;4.692;2023-05-24T00:01:57;42.46;41.56;43.44;;
66459;Laerm;56836;52.570;4.692;2023-05-24T00:02:07;42.51;41.54;43.33;;
66459;Laerm;56836;52.570;4.692;2023-05-24T00:02:18;42.44;41.62;43.32;;
66459;Laerm;56836;52.570;4.692;2023-05-24T00:02:29;42.49;41.61;44.10;;
66459;Laerm;56836;52.570;4.692;2023-05-24T00:02:39;42.43;41.34;43.62;;
66459;Laerm;56836;52.570;4.692;2023-05-24T00:02:52;42.41;41.52;43.24;;
66459;Laerm;56836;52.570;4.692;2023-05-24T00:03:02;42.44;41.61;43.37;;
66459;Laerm;56836;52.570;4.692;2023-05-24T00:03:13;42.42;41.52;43.23;;
66459;Laerm;56836;52.570;4.692;2023-05-24T00:03:25;42.43;41.55;43.20;;
66459;Laerm;56836;52.570;4.692;2023-05-24T00:03:35;42.47;41.48;43.33;;
66459;Laerm;56836;52.570;4.692;2023-05-24T00:03:48;42.47;41.42;43.39;;
66459;Laerm;56836;52.570;4.692;2023-05-24T00:03:58;42.50;41.75;43.35;;
66459;Laerm;56836;52.570;4.692;2023-05-24T00:04:09;42.50;41.51;43.40;;
66459;Laerm;56836;52.570;4.692;2023-05-24T00:04:19;42.54;41.72;43.44;;
66459;Laerm;56836;52.570;4.692;2023-05-24T00:04:30;42.52;41.65;43.57;;
66459;Laerm;56836;52.570;4.692;2023-05-24T00:04:41;42.54;41.68;43.28;;
66459;Laerm;56836;52.570;4.692;2023-05-24T00:04:51;42.64;41.77;44.15;;
66459;Laerm;56836;52.570;4.692;2023-05-24T00:05:02;42.65;41.62;43.54;;
66459;Laerm;56836;52.570;4.692;2023-05-24T00:05:12;42.67;41.82;43.46;;
66459;Laerm;56836;52.570;4.692;2023-05-24T00:05:25;42.72;41.75;48.69;;
66459;Laerm;56836;52.570;4.692;2023-05-24T00:05:35;42.64;41.43;43.43;;
66459;Laerm;56836;52.570;4.692;2023-05-24T00:05:46;42.71;41.75;43.45;;
66459;Laerm;56836;52.570;4.692;2023-05-24T00:05:57;42.65;41.65;43.52;;
66459;Laerm;56836;52.570;4.692;2023-05-24T00:06:07;42.65;41.55;43.51;;
66459;Laerm;56836;52.570;4.692;2023-05-24T00:06:18;42.79;41.75;43.99;;
66459;Laerm;56836;52.570;4.692;2023-05-24T00:06:28;42.91;41.68;49.82;;
66459;Laerm;56836;52.570;4.692;2023-05-24T00:06:38;42.77;41.76;43.77;;
66459;Laerm;56836;52.570;4.692;2023-05-24T00:06:49;42.86;41.95;48.10;;
66459;Laerm;56836;52.570;4.692;2023-05-24T00:06:59;42.73;41.81;43.45;;
66459;Laerm;56836;52.570;4.692;2023-05-24T00:07:12;42.69;41.82;44.73;;
66459;Laerm;56836;52.570;4.692;2023-05-24T00:07:22;42.73;41.76;43.80;;
66459;Laerm;56836;52.570;4.692;2023-05-24T00:07:32;42.62;41.61;43.49;;
66459;Laerm;56836;52.570;4.692;2023-05-24T00:07:43;42.62;41.91;43.63;;
66459;Laerm;56836;52.570;4.692;2023-05-24T00:07:53;42.56;41.78;43.44;;
66459;Laerm;56836;52.570;4.692;2023-05-24T00:08:03;42.62;41.82;43.43;;
66459;Laerm;56836;52.570;4.692;2023-05-24T00:08:14;42.77;41.73;44.49;;
66459;Laerm;56836;52.570;4.692;2023-05-24T00:08:25;42.79;41.73;44.15;;
66459;Laerm;56836;52.570;4.692;2023-05-24T00:08:35;42.67;41.62;43.93;;
66459;Laerm;56836;52.570;4.692;2023-05-24T00:08:46;42.72;41.77;43.85;;
66459;Laerm;56836;52.570;4.692;2023-05-24T00:08:56;42.68;41.86;43.57;;
66459;Laerm;56836;52.570;4.692;2023-05-24T00:09:06;42.77;41.95;44.47;;
66459;Laerm;56836;52.570;4.692;2023-05-24T00:09:16;42.79;41.72;44.82;;
66459;Laerm;56836;52.570;4.692;2023-05-24T00:09:27;42.77;41.90;44.65;;
66459;Laerm;56836;52.570;4.692;2023-05-24T00:09:37;42.67;41.68;43.63;;
66459;Laerm;56836;52.570;4.692;2023-05-24T00:09:47;42.75;41.62;43.96;;
66459;Laerm;56836;52.570;4.692;2023-05-24T00:09:57;42.74;41.87;43.90;;
66459;Laerm;56836;52.570;4.692;2023-05-24T00:10:08;42.89;41.86;44.20;;
66459;Laerm;56836;52.570;4.692;2023-05-24T00:10:19;42.74;41.79;43.86;;
66459;Laerm;56836;52.570;4.692;2023-05-24T00:10:29;42.76;41.94;43.57;;
66459;Laerm;56836;52.570;4.692;2023-05-24T00:10:40;42.69;41.90;43.46;;
66459;Laerm;56836;52.570;4.692;2023-05-24T00:10:50;42.77;41.94;43.44;;
66459;Laerm;56836;52.570;4.692;2023-05-24T00:11:00;42.79;42.05;43.75;;
66459;Laerm;56836;52.570;4.692;2023-05-24T00:11:11;42.87;41.97;43.92;;
66459;Laerm;56836;52.570;4.692;2023-05-24T00:11:21;42.73;41.99;43.70;;
66459;Laerm;56836;52.570;4.692;2023-05-24T00:11:31;42.73;42.03;45.70;;
66459;Laerm;56836;52.570;4.692;2023-05-24T00:11:42;42.73;41.83;43.46;;
66459;Laerm;56836;52.570;4.692;2023-05-24T00:11:52;42.82;42.03;45.62;;
66459;Laerm;56836;52.570;4.692;2023-05-24T00:12:02;42.80;41.85;43.57;;
66459;Laerm;56836;52.570;4.692;2023-05-24T00:12:12;42.77;41.84;44.27;;
66459;Laerm;56836;52.570;4.692;2023-05-24T00:12:23;42.71;41.93;44.34;;
66459;Laerm;56836;52.570;4.692;2023-05-24T00:12:33;42.76;41.97;44.02;;
66459;Laerm;56836;52.570;4.692;2023-05-24T00:12:43;43.08;41.83;44.60;;
66459;Laerm;56836;52.570;4.692;2023-05-24T00:12:54;42.83;42.11;43.66;;
66459;Laerm;56836;52.570;4.692;2023-05-24T00:13:04;42.90;41.91;45.13;;
66459;Laerm;56836;52.570;4.692;2023-05-24T00:13:15;42.99;42.30;45.37;;
66459;Laerm;56836;52.570;4.692;2023-05-24T00:13:25;42.94;42.15;45.11;;
66459;Laerm;56836;52.570;4.692;2023-05-24T00:13:36;42.97;41.93;44.11;;
66459;Laerm;56836;52.570;4.692;2023-05-24T00:13:47;42.94;42.03;43.81;;
66459;Laerm;56836;52.570;4.692;2023-05-24T00:13:57;42.90;42.01;43.96;;
66459;Laerm;56836;52.570;4.692;2023-05-24T00:14:08;42.87;41.91;43.81;;
66459;Laerm;56836;52.570;4.692;2023-05-24T00:14:18;42.84;41.72;45.04;;
66459;Laerm;56836;52.570;4.692;2023-05-24T00:14:28;42.86;42.10;43.87;;
66459;Laerm;56836;52.570;4.692;2023-05-24T00:14:39;42.81;41.95;43.96;;
66459;Laerm;56836;52.570;4.692;2023-05-24T00:14:49;42.76;41.91;43.65;;
66459;Laerm;56836;52.570;4.692;2023-05-24T00:15:00;42.93;42.05;45.01;;
66459;Laerm;56836;52.570;4.692;2023-05-24T00:15:10;42.87;41.91;45.59;;
66459;Laerm;56836;52.570;4.692;2023-05-24T00:15:20;42.72;41.74;43.71;;
66459;Laerm;56836;52.570;4.692;2023-05-24T00:15:31;42.80;42.00;44.11;;
66459;Laerm;56836;52.570;4.692;2023-05-24T00:15:41;42.78;42.00;43.66;;
66459;Laerm;56836;52.570;4.692;2023-05-24T00:15:51;42.84;41.83;43.69;;
66459;Laerm;56836;52.570;4.692;2023-05-24T00:16:02;42.81;41.86;43.78;;
66459;Laerm;56836;52.570;4.692;2023-05-24T00:16:12;42.68;41.60;43.65;;
66459;Laerm;56836;52.570;4.692;2023-05-24T00:16:22;42.69;41.82;43.79;;
66459;Laerm;56836;52.570;4.692;2023-05-24T00:16:32;42.70;41.55;43.56;;
66459;Laerm;56836;52.570;4.692;2023-05-24T00:16:44;42.75;42.02;43.56;;
66459;Laerm;56836;52.570;4.692;2023-05-24T00:16:55;42.76;41.96;43.52;;
66459;Laerm;56836;52.570;4.692;2023-05-24T00:17:05;42.77;41.65;43.42;;
66459;Laerm;56836;52.570;4.692;2023-05-24T00:17:15;42.75;41.81;43.62;;
66459;Laerm;56836;52.570;4.692;2023-05-24T00:17:26;42.83;41.93;45.06;;
66459;Laerm;56836;52.570;4.692;2023-05-24T00:17:39;43.07;41.92;48.11;;
66459;Laerm;56836;52.570;4.692;2023-05-24T00:17:51;42.79;41.79;44.08;;
66459;Laerm;56836;52.570;4.692;2023-05-24T00:18:02;42.70;41.83;43.55;;
66459;Laerm;56836;52.570;4.692;2023-05-24T00:18:12;42.71;41.79;43.54;;
66459;Laerm;56836;52.570;4.692;2023-05-24T00:18:22;42.65;41.61;43.36;;
66459;Laerm;56836;52.570;4.692;2023-05-24T00:18:33;42.71;41.78;43.46;;
66459;Laerm;56836;52.570;4.692;2023-05-24T00:18:43;42.71;42.02;43.55;;
66459;Laerm;56836;52.570;4.692;2023-05-24T00:18:56;42.65;41.60;43.50;;
66459;Laerm;56836;52.570;4.692;2023-05-24T00:19:07;42.66;41.69;44.86;;
66459;Laerm;56836;52.570;4.692;2023-05-24T00:19:20;42.70;41.66;44.30;;
66459;Laerm;56836;52.570;4.692;2023-05-24T00:19:31;42.61;41.89;43.44;;
66459;Laerm;56836;52.570;4.692;2023-05-24T00:19:41;42.60;41.64;43.36;;
66459;Laerm;56836;52.570;4.692;2023-05-24T00:19:52;42.65;41.79;43.37;;
66459;Laerm;56836;52.570;4.692;2023-05-24T00:20:02;42.60;41.79;43.32;;
66459;Laerm;56836;52.570;4.692;2023-05-24T00:20:12;42.57;41.36;43.31;;
66459;Laerm;56836;52.570;4.692;2023-05-24T00:20:23;42.66;41.87;43.61;;
66459;Laerm;56836;52.570;4.692;2023-05-24T00:20:33;42.60;41.80;43.54;;
66459;Laerm;56836;52.570;4.692;2023-05-24T00:20:44;42.56;41.74;43.36;;
66459;Laerm;56836;52.570;4.692;2023-05-24T00:20:54;42.58;41.80;43.34;;
66459;Laerm;56836;52.570;4.692;2023-05-24T00:21:06;42.65;41.77;43.84;;
66459;Laerm;56836;52.570;4.692;2023-05-24T00:21:17;42.69;41.92;43.62;;
66459;Laerm;56836;52.570;4.692;2023-05-24T00:21:27;42.68;41.38;44.35;;
66459;Laerm;56836;52.570;4.692;2023-05-24T00:21:38;42.77;42.01;43.44;;
66459;Laerm;56836;52.570;4.692;2023-05-24T00:21:48;42.72;41.89;43.85;;
66459;Laerm;56836;52.570;4.692;2023-05-24T00:21:58;42.61;41.77;43.75;;
66459;Laerm;56836;52.570;4.692;2023-05-24T00:22:09;42.64;41.88;43.36;;
66459;Laerm;56836;52.570;4.692;2023-05-24T00:22:19;42.66;41.82;43.56;;
66459;Laerm;56836;52.570;4.692;2023-05-24T00:22:30;42.67;41.73;44.19;;
66459;Laerm;56836;52.570;4.692;2023-05-24T00:22:40;42.73;41.78;45.08;;
66459;Laerm;56836;52.570;4.692;2023-05-24T00:22:51;42.78;41.77;43.74;;
66459;Laerm;56836;52.570;4.692;2023-05-24T00:23:01;42.71;41.71;43.79;;
66459;Laerm;56836;52.570;4.692;2023-05-24T00:23:11;42.68;41.80;43.61;;
66459;Laerm;56836;52.570;4.692;2023-05-24T00:23:22;42.72;41.54;44.18;;
66459;Laerm;56836;52.570;4.692;2023-05-24T00:23:32;42.66;41.73;43.52;;
66459;Laerm;56836;52.570;4.692;2023-05-24T00:23:43;42.65;41.38;43.70;;
66459;Laerm;56836;52.570;4.692;2023-05-24T00:23:53;42.72;41.79;48.16;;
66459;Laerm;56836;52.570;4.692;2023-05-24T00:24:03;42.68;41.83;43.83;;
66459;Laerm;56836;52.570;4.692;2023-05-24T00:24:13;42.64;41.66;43.79;;
66459;Laerm;56836;52.570;4.692;2023-05-24T00:24:26;42.79;41.92;44.46;;
66459;Laerm;56836;52.570;4.692;2023-05-24T00:24:36;42.80;41.67;45.82;;
66459;Laerm;56836;52.570;4.692;2023-05-24T00:24:46;42.71;41.97;43.69;;
66459;Laerm;56836;52.570;4.692;2023-05-24T00:24:57;42.94;41.85;46.71;;
66459;Laerm;56836;52.570;4.692;2023-05-24T00:25:07;42.72;41.84;44.82;;
66459;Laerm;56836;52.570;4.692;2023-05-24T00:25:18;42.67;41.95;43.53;;
66459;Laerm;56836;52.570;4.692;2023-05-24T00:25:28;42.68;41.81;43.63;;
66459;Laerm;56836;52.570;4.692;2023-05-24T00:25:38;42.60;41.80;43.38;;
66459;Laerm;56836;52.570;4.692;2023-05-24T00:25:48;42.54;41.57;43.41;;
66459;Laerm;56836;52.570;4.692;2023-05-24T00:25:59;42.60;41.67;43.54;;
66459;Laerm;56836;52.570;4.692;2023-05-24T00:26:10;42.57;41.80;43.30;;
66459;Laerm;56836;52.570;4.692;2023-05-24T00:26:20;42.52;41.65;43.47;;
66459;Laerm;56836;52.570;4.692;2023-05-24T00:26:31;42.50;41.75;43.54;;
66459;Laerm;56836;52.570;4.692;2023-05-24T00:26:41;42.55;41.78;43.38;;
66459;Laerm;56836;52.570;4.692;2023-05-24T00:26:51;42.62;41.52;44.81;;
66459;Laerm;56836;52.570;4.692;2023-05-24T00:27:02;42.78;41.97;46.20;;
66459;Laerm;56836;52.570;4.692;2023-05-24T00:27:12;42.68;41.78;43.42;;
66459;Laerm;56836;52.570;4.692;2023-05-24T00:27:23;42.68;41.63;44.14;;
66459;Laerm;56836;52.570;4.692;2023-05-24T00:27:33;42.82;41.81;43.70;;
66459;Laerm;56836;52.570;4.692;2023-05-24T00:27:45;42.92;41.88;44.28;;
66459;Laerm;56836;52.570;4.692;2023-05-24T00:27:56;42.81;41.87;44.09;;
66459;Laerm;56836;52.570;4.692;2023-05-24T00:28:06;42.72;41.92;43.53;;
66459;Laerm;56836;52.570;4.692;2023-05-24T00:28:16;42.70;41.81;43.71;;
66459;Laerm;56836;52.570;4.692;2023-05-24T00:28:27;42.72;41.89;43.58;;
66459;Laerm;56836;52.570;4.692;2023-05-24T00:28:37;42.52;41.61;43.27;;
66459;Laerm;56836;52.570;4.692;2023-05-24T00:28:47;42.54;41.57;43.36;;
66459;Laerm;56836;52.570;4.692;2023-05-24T00:28:57;42.56;41.47;43.48;;
66459;Laerm;56836;52.570;4.692;2023-05-24T00:29:08;42.63;41.69;43.40;;
66459;Laerm;56836;52.570;4.692;2023-05-24T00:29:18;42.59;41.66;43.55;;
66459;Laerm;56836;52.570;4.692;2023-05-24T00:29:28;42.62;41.85;43.41;;
66459;Laerm;56836;52.570;4.692;2023-05-24T00:29:38;42.61;41.74;43.59;;
66459;Laerm;56836;52.570;4.692;2023-05-24T00:29:49;42.64;41.81;43.49;;
66459;Laerm;56836;52.570;4.692;2023-05-24T00:29:59;42.66;41.75;43.92;;
66459;Laerm;56836;52.570;4.692;2023-05-24T00:30:10;42.61;41.86;43.42;;
66459;Laerm;56836;52.570;4.692;2023-05-24T00:30:20;42.68;41.71;43.72;;
66459;Laerm;56836;52.570;4.692;2023-05-24T00:30:30;42.70;41.90;45.16;;
66459;Laerm;56836;52.570;4.692;2023-05-24T00:30:40;42.65;41.80;43.41;;
66459;Laerm;56836;52.570;4.692;2023-05-24T00:30:51;42.64;41.77;43.55;;
66459;Laerm;56836;52.570;4.692;2023-05-24T00:31:01;42.68;41.79;43.64;;
66459;Laerm;56836;52.570;4.692;2023-05-24T00:31:12;42.68;41.75;43.64;;
66459;Laerm;56836;52.570;4.692;2023-05-24T00:31:22;42.88;41.71;44.28;;
66459;Laerm;56836;52.570;4.692;2023-05-24T00:31:32;42.74;41.66;43.69;;
66459;Laerm;56836;52.570;4.692;2023-05-24T00:31:42;42.85;41.84;43.72;;
66459;Laerm;56836;52.570;4.692;2023-05-24T00:31:53;42.84;41.72;44.55;;
66459;Laerm;56836;52.570;4.692;2023-05-24T00:32:03;42.84;41.79;44.54;;
66459;Laerm;56836;52.570;4.692;2023-05-24T00:32:13;42.94;41.49;44.21;;
66459;Laerm;56836;52.570;4.692;2023-05-24T00:32:23;42.71;41.90;43.63;;
66459;Laerm;56836;52.570;4.692;2023-05-24T00:32:34;42.66;41.85;43.40;;
66459;Laerm;56836;52.570;4.692;2023-05-24T00:32:44;42.75;41.66;43.65;;
66459;Laerm;56836;52.570;4.692;2023-05-24T00:32:55;42.77;41.77;43.66;;
66459;Laerm;56836;52.570;4.692;2023-05-24T00:33:05;42.69;41.88;43.78;;
66459;Laerm;56836;52.570;4.692;2023-05-24T00:33:15;42.72;41.75;43.58;;
66459;Laerm;56836;52.570;4.692;2023-05-24T00:33:25;42.70;41.78;43.81;;
66459;Laerm;56836;52.570;4.692;2023-05-24T00:33:37;42.71;41.74;43.68;;
66459;Laerm;56836;52.570;4.692;2023-05-24T00:33:47;42.70;41.77;43.52;;
66459;Laerm;56836;52.570;4.692;2023-05-24T00:33:57;42.62;41.61;43.37;;
66459;Laerm;56836;52.570;4.692;2023-05-24T00:34:08;42.57;41.68;43.39;;
66459;Laerm;56836;52.570;4.692;2023-05-24T00:34:18;42.57;41.43;43.21;;
66459;Laerm;56836;52.570;4.692;2023-05-24T00:34:28;42.52;41.64;43.27;;
66459;Laerm;56836;52.570;4.692;2023-05-24T00:34:38;42.57;41.56;43.72;;
66459;Laerm;56836;52.570;4.692;2023-05-24T00:34:49;42.55;41.74;43.33;;
66459;Laerm;56836;52.570;4.692;2023-05-24T00:34:59;42.55;41.81;43.36;;
66459;Laerm;56836;52.570;4.692;2023-05-24T00:35:10;42.50;41.70;43.35;;
66459;Laerm;56836;52.570;4.692;2023-05-24T00:35:20;42.51;41.62;43.27;;
66459;Laerm;56836;52.570;4.692;2023-05-24T00:35:30;42.54;41.54;43.46;;
66459;Laerm;56836;52.570;4.692;2023-05-24T00:35:40;42.55;41.66;43.45;;
66459;Laerm;56836;52.570;4.692;2023-05-24T00:35:51;42.70;41.80;43.65;;
66459;Laerm;56836;52.570;4.692;2023-05-24T00:36:05;42.72;41.76;43.57;;
66459;Laerm;56836;52.570;4.692;2023-05-24T00:36:16;42.68;41.70;43.45;;
66459;Laerm;56836;52.570;4.692;2023-05-24T00:36:26;42.69;41.67;43.39;;
66459;Laerm;56836;52.570;4.692;2023-05-24T00:36:36;42.67;41.73;43.50;;
66459;Laerm;56836;52.570;4.692;2023-05-24T00:36:47;42.69;41.95;43.57;;
66459;Laerm;56836;52.570;4.692;2023-05-24T00:36:57;42.64;41.85;43.54;;
66459;Laerm;56836;52.570;4.692;2023-05-24T00:37:07;42.63;41.88;43.59;;
66459;Laerm;56836;52.570;4.692;2023-05-24T00:37:18;42.65;41.92;43.55;;
66459;Laerm;56836;52.570;4.692;2023-05-24T00:37:28;42.65;41.72;43.54;;
66459;Laerm;56836;52.570;4.692;2023-05-24T00:37:38;42.73;41.77;43.76;;
66459;Laerm;56836;52.570;4.692;2023-05-24T00:37:50;42.75;41.79;43.59;;
66459;Laerm;56836;52.570;4.692;2023-05-24T00:38:01;42.73;41.76;43.72;;
66459;Laerm;56836;52.570;4.692;2023-05-24T00:38:11;42.74;41.74;43.63;;
66459;Laerm;56836;52.570;4.692;2023-05-24T00:38:22;42.79;41.95;43.54;;
66459;Laerm;56836;52.570;4.692;2023-05-24T00:38:32;42.81;41.95;43.77;;
66459;Laerm;56836;52.570;4.692;2023-05-24T00:38:43;42.77;41.86;43.46;;
66459;Laerm;56836;52.570;4.692;2023-05-24T00:38:53;42.74;41.87;43.59;;
66459;Laerm;56836;52.570;4.692;2023-05-24T00:39:03;42.73;41.65;43.50;;
66459;Laerm;56836;52.570;4.692;2023-05-24T00:39:14;42.65;41.76;43.44;;
66459;Laerm;56836;52.570;4.692;2023-05-24T00:39:24;42.67;41.71;43.46;;
66459;Laerm;56836;52.570;4.692;2023-05-24T00:39:34;42.62;41.77;43.27;;
66459;Laerm;56836;52.570;4.692;2023-05-24T00:39:45;42.64;41.88;43.64;;
66459;Laerm;56836;52.570;4.692;2023-05-24T00:39:55;42.71;41.70;43.42;;
66459;Laerm;56836;52.570;4.692;2023-05-24T00:40:05;42.66;41.73;43.82;;
66459;Laerm;56836;52.570;4.692;2023-05-24T00:40:16;42.68;41.88;43.64;;
66459;Laerm;56836;52.570;4.692;2023-05-24T00:40:26;42.61;41.76;44.30;;
66459;Laerm;56836;52.570;4.692;2023-05-24T00:40:37;42.66;41.50;43.53;;
66459;Laerm;56836;52.570;4.692;2023-05-24T00:40:47;42.68;41.99;43.75;;
66459;Laerm;56836;52.570;4.692;2023-05-24T00:40:58;42.64;41.68;43.71;;
66459;Laerm;56836;52.570;4.692;2023-05-24T00:41:10;42.62;41.54;43.50;;
66459;Laerm;56836;52.570;4.692;2023-05-24T00:41:20;42.71;41.71;45.46;;
66459;Laerm;56836;52.570;4.692;2023-05-24T00:41:30;42.63;41.56;43.94;;
66459;Laerm;56836;52.570;4.692;2023-05-24T00:41:41;42.65;41.74;43.75;;
66459;Laerm;56836;52.570;4.692;2023-05-24T00:41:51;42.66;41.80;43.80;;
66459;Laerm;56836;52.570;4.692;2023-05-24T00:42:01;42.75;41.64;43.76;;
66459;Laerm;56836;52.570;4.692;2023-05-24T00:42:12;42.63;41.81;43.28;;
66459;Laerm;56836;52.570;4.692;2023-05-24T00:42:22;42.63;41.73;44.28;;
66459;Laerm;56836;52.570;4.692;2023-05-24T00:42:32;42.65;41.66;43.83;;
66459;Laerm;56836;52.570;4.692;2023-05-24T00:42:43;42.73;41.79;43.75;;
66459;Laerm;56836;52.570;4.692;2023-05-24T00:42:53;42.73;41.83;45.04;;
66459;Laerm;56836;52.570;4.692;2023-05-24T00:43:03;42.74;42.00;44.39;;
66459;Laerm;56836;52.570;4.692;2023-05-24T00:43:13;42.76;41.92;43.49;;
66459;Laerm;56836;52.570;4.692;2023-05-24T00:43:24;42.70;41.74;43.67;;
66459;Laerm;56836;52.570;4.692;2023-05-24T00:43:34;42.73;41.98;43.74;;
66459;Laerm;56836;52.570;4.692;2023-05-24T00:43:45;42.74;41.70;43.78;;
66459;Laerm;56836;52.570;4.692;2023-05-24T00:43:56;42.67;41.72;43.41;;
66459;Laerm;56836;52.570;4.692;2023-05-24T00:44:06;42.69;41.88;43.54;;
66459;Laerm;56836;52.570;4.692;2023-05-24T00:44:16;42.71;41.61;44.16;;
66459;Laerm;56836;52.570;4.692;2023-05-24T00:44:26;42.71;41.72;43.65;;
66459;Laerm;56836;52.570;4.692;2023-05-24T00:44:37;42.77;41.85;43.79;;
66459;Laerm;56836;52.570;4.692;2023-05-24T00:44:47;42.65;41.71;43.36;;
66459;Laerm;56836;52.570;4.692;2023-05-24T00:44:57;42.66;41.46;43.52;;
66459;Laerm;56836;52.570;4.692;2023-05-24T00:45:08;42.67;41.91;43.57;;
66459;Laerm;56836;52.570;4.692;2023-05-24T00:45:18;42.81;41.95;44.11;;
66459;Laerm;56836;52.570;4.692;2023-05-24T00:45:28;42.88;41.99;43.92;;
66459;Laerm;56836;52.570;4.692;2023-05-24T00:45:39;42.69;41.91;43.51;;
66459;Laerm;56836;52.570;4.692;2023-05-24T00:46:02;42.94;41.83;43.82;;
66459;Laerm;56836;52.570;4.692;2023-05-24T00:46:20;42.80;41.95;44.07;;
66459;Laerm;56836;52.570;4.692;2023-05-24T00:46:33;42.77;41.91;43.68;;
66459;Laerm;56836;52.570;4.692;2023-05-24T00:46:44;42.69;41.89;43.58;;
66459;Laerm;56836;52.570;4.692;2023-05-24T00:46:54;42.69;41.85;43.42;;
66459;Laerm;56836;52.570;4.692;2023-05-24T00:47:04;42.72;41.66;43.56;;
66459;Laerm;56836;52.570;4.692;2023-05-24T00:47:15;42.70;41.84;43.63;;
66459;Laerm;56836;52.570;4.692;2023-05-24T00:47:25;42.65;41.93;43.50;;
66459;Laerm;56836;52.570;4.692;2023-05-24T00:47:36;42.69;41.90;43.58;;
66459;Laerm;56836;52.570;4.692;2023-05-24T00:47:46;42.62;41.77;43.45;;
66459;Laerm;56836;52.570;4.692;2023-05-24T00:47:56;42.71;41.84;43.70;;
66459;Laerm;56836;52.570;4.692;2023-05-24T00:48:07;42.74;41.83;44.66;;
66459;Laerm;56836;52.570;4.692;2023-05-24T00:48:17;42.67;41.34;44.13;;
66459;Laerm;56836;52.570;4.692;2023-05-24T00:48:28;42.65;41.83;43.49;;
66459;Laerm;56836;52.570;4.692;2023-05-24T00:48:38;42.66;41.62;43.41;;
66459;Laerm;56836;52.570;4.692;2023-05-24T00:48:49;42.73;41.94;43.36;;
66459;Laerm;56836;52.570;4.692;2023-05-24T00:49:00;42.70;41.81;43.82;;
66459;Laerm;56836;52.570;4.692;2023-05-24T00:49:10;42.90;42.05;44.04;;
66459;Laerm;56836;52.570;4.692;2023-05-24T00:49:21;42.89;41.75;43.82;;
66459;Laerm;56836;52.570;4.692;2023-05-24T00:49:32;42.80;42.00;43.59;;
66459;Laerm;56836;52.570;4.692;2023-05-24T00:49:42;42.74;41.74;45.20;;
66459;Laerm;56836;52.570;4.692;2023-05-24T00:49:52;42.73;41.93;43.73;;
66459;Laerm;56836;52.570;4.692;2023-05-24T00:50:03;42.87;41.82;44.44;;
66459;Laerm;56836;52.570;4.692;2023-05-24T00:50:13;42.85;42.03;44.08;;
66459;Laerm;56836;52.570;4.692;2023-05-24T00:50:26;42.71;41.73;43.75;;
66459;Laerm;56836;52.570;4.692;2023-05-24T00:50:36;42.71;41.93;44.01;;
66459;Laerm;56836;52.570;4.692;2023-05-24T00:50:47;42.60;41.67;43.74;;
66459;Laerm;56836;52.570;4.692;2023-05-24T00:50:57;42.70;41.93;43.51;;
66459;Laerm;56836;52.570;4.692;2023-05-24T00:51:07;42.62;41.81;43.59;;
66459;Laerm;56836;52.570;4.692;2023-05-24T00:51:18;42.62;41.84;43.66;;
66459;Laerm;56836;52.570;4.692;2023-05-24T00:51:28;42.66;41.76;43.48;;
66459;Laerm;56836;52.570;4.692;2023-05-24T00:51:40;42.64;41.59;43.51;;
66459;Laerm;56836;52.570;4.692;2023-05-24T00:51:51;42.69;41.74;43.46;;
66459;Laerm;56836;52.570;4.692;2023-05-24T00:52:02;42.61;41.60;43.49;;
66459;Laerm;56836;52.570;4.692;2023-05-24T00:52:12;42.75;41.97;43.79;;
66459;Laerm;56836;52.570;4.692;2023-05-24T00:52:23;42.65;41.75;43.50;;
66459;Laerm;56836;52.570;4.692;2023-05-24T00:52:33;42.68;41.89;43.39;;
66459;Laerm;56836;52.570;4.692;2023-05-24T00:52:43;42.59;41.61;43.54;;
66459;Laerm;56836;52.570;4.692;2023-05-24T00:52:54;42.62;41.69;43.40;;
66459;Laerm;56836;52.570;4.692;2023-05-24T00:53:05;42.61;41.58;43.61;;
66459;Laerm;56836;52.570;4.692;2023-05-24T00:53:15;42.61;41.87;43.28;;
66459;Laerm;56836;52.570;4.692;2023-05-24T00:53:26;42.68;41.86;43.93;;
66459;Laerm;56836;52.570;4.692;2023-05-24T00:53:36;42.63;41.84;43.68;;
66459;Laerm;56836;52.570;4.692;2023-05-24T00:53:47;42.61;41.48;43.52;;
66459;Laerm;56836;52.570;4.692;2023-05-24T00:53:58;42.68;41.62;43.90;;
66459;Laerm;56836;52.570;4.692;2023-05-24T00:54:08;42.60;41.75;43.55;;
66459;Laerm;56836;52.570;4.692;2023-05-24T00:54:19;42.56;41.64;43.35;;
66459;Laerm;56836;52.570;4.692;2023-05-24T00:54:29;42.58;41.69;43.41;;
66459;Laerm;56836;52.570;4.692;2023-05-24T00:54:40;42.62;41.71;43.64;;
66459;Laerm;56836;52.570;4.692;2023-05-24T00:54:50;42.65;41.58;43.40;;
66459;Laerm;56836;52.570;4.692;2023-05-24T00:55:01;42.69;41.86;43.54;;
66459;Laerm;56836;52.570;4.692;2023-05-24T00:55:12;42.75;41.78;43.74;;
66459;Laerm;56836;52.570;4.692;2023-05-24T00:55:22;42.84;41.96;43.58;;
66459;Laerm;56836;52.570;4.692;2023-05-24T00:55:33;42.81;42.11;44.09;;
66459;Laerm;56836;52.570;4.692;2023-05-24T00:55:43;42.83;41.56;44.16;;
66459;Laerm;56836;52.570;4.692;2023-05-24T00:55:53;42.85;41.60;44.45;;
66459;Laerm;56836;52.570;4.692;2023-05-24T00:56:04;43.23;41.69;44.24;;
66459;Laerm;56836;52.570;4.692;2023-05-24T00:56:15;43.10;42.24;44.23;;
66459;Laerm;56836;52.570;4.692;2023-05-24T00:56:26;42.89;41.90;44.32;;
66459;Laerm;56836;52.570;4.692;2023-05-24T00:56:36;42.73;41.82;43.60;;
66459;Laerm;56836;52.570;4.692;2023-05-24T00:56:47;42.66;41.57;44.35;;
66459;Laerm;56836;52.570;4.692;2023-05-24T00:56:58;42.68;41.72;45.02;;
66459;Laerm;56836;52.570;4.692;2023-05-24T00:57:08;42.80;42.06;44.18;;
66459;Laerm;56836;52.570;4.692;2023-05-24T00:57:18;42.74;41.83;43.87;;
66459;Laerm;56836;52.570;4.692;2023-05-24T00:57:29;42.64;41.78;43.69;;
66459;Laerm;56836;52.570;4.692;2023-05-24T00:57:39;42.76;41.73;43.49;;
66459;Laerm;56836;52.570;4.692;2023-05-24T00:57:50;42.62;41.67;43.91;;
66459;Laerm;56836;52.570;4.692;2023-05-24T00:58:01;42.58;41.66;43.54;;
66459;Laerm;56836;52.570;4.692;2023-05-24T00:58:12;42.67;41.85;43.55;;
66459;Laerm;56836;52.570;4.692;2023-05-24T00:58:22;42.63;41.79;43.42;;
66459;Laerm;56836;52.570;4.692;2023-05-24T00:58:36;42.70;41.71;43.45;;
66459;Laerm;56836;52.570;4.692;2023-05-24T00:58:46;42.72;41.57;43.55;;
66459;Laerm;56836;52.570;4.692;2023-05-24T00:58:59;42.69;41.86;43.57;;
66459;Laerm;56836;52.570;4.692;2023-05-24T00:59:09;42.60;41.69;43.43;;
66459;Laerm;56836;52.570;4.692;2023-05-24T00:59:20;42.65;41.84;43.56;;
66459;Laerm;56836;52.570;4.692;2023-05-24T00:59:31;42.61;41.81;43.40;;